Time;durP1;ratioP1;P1;durP2;ratioP2;P2;SDS_P1;SDS_P2;PMS_P1;PMS_P2;Temp;Humidity;BMP_temperature;BMP_pressure;BME280_temperature;BME280_humidity;BME280_pressure;Samples;Min_cycle;Max_cycle;Signal;HPM_P1;HPM_P2
2022/12/29 00:00:28;;;;;;;7.07;3.10;;;;;;;3.33;100.00;92622.03;2560242;23;20809;-85
2022/12/29 00:01:37;;;;;;;6.05;3.08;;;;;;;3.36;100.00;92616.00;2560318;23;20013;-85
2022/12/29 00:02:49;;;;;;;2.90;2.43;;;;;;;3.49;100.00;92617.09;2559931;23;20431;-84
2022/12/29 00:03:56;;;;;;;6.00;2.75;;;;;;;3.43;100.00;92610.69;2561162;23;20404;-84
2022/12/29 00:05:04;;;;;;;3.72;2.75;;;;;;;3.27;100.00;92609.22;2570820;23;20444;-85
2022/12/29 00:06:13;;;;;;;4.82;2.78;;;;;;;3.34;100.00;92611.09;2559761;23;20005;-85
2022/12/29 00:07:21;;;;;;;4.50;2.80;;;;;;;3.28;100.00;92604.69;2582156;23;20087;-86
2022/12/29 00:08:42;;;;;;;5.80;2.80;;;;;;;3.26;100.00;92594.50;2571283;23;20004;-85
2022/12/29 00:09:50;;;;;;;2.90;2.60;;;;;;;3.47;100.00;92612.19;2565082;23;20003;-84
2022/12/29 00:10:59;;;;;;;6.10;2.67;;;;;;;3.47;100.00;92609.53;2570866;23;20026;-83
2022/12/29 00:12:07;;;;;;;6.72;2.70;;;;;;;3.48;100.00;92597.84;2560446;23;20009;-84
2022/12/29 00:16:12;;;;;;;4.53;1.85;;;;;;;4.41;100.00;92600.00;2586078;22;20040;-84
2022/12/29 00:17:21;;;;;;;2.90;1.83;;;;;;;4.42;100.00;92606.03;2570297;23;20013;-84
2022/12/29 00:18:31;;;;;;;7.43;2.00;;;;;;;4.73;100.00;92604.28;2570232;23;20483;-84
2022/12/29 00:35:41;;;;;;;4.13;1.15;;;;;;;7.37;100.00;92562.91;2571060;22;20011;-84
2022/12/29 00:36:44;;;;;;;3.95;1.50;;;;;;;7.62;100.00;92560.53;2571188;23;20086;-84
2022/12/29 00:44:04;;;;;;;3.75;1.15;;;;;;;7.86;100.00;92557.78;2586964;22;20049;-84
2022/12/29 00:44:58;;;;;;;3.40;1.20;;;;;;;7.75;100.00;92560.66;2593960;22;20442;-84
2022/12/29 00:45:59;;;;;;;3.33;1.25;;;;;;;7.64;100.00;92558.22;2569193;23;20028;-84
2022/12/29 00:47:02;;;;;;;3.70;1.30;;;;;;;7.89;100.00;92572.91;2569064;23;20005;-84
2022/12/29 00:48:04;;;;;;;4.30;1.20;;;;;;;8.03;100.00;92564.63;2569193;23;20000;-84
2022/12/29 00:50:26;;;;;;;6.05;1.73;;;;;;;7.84;100.00;92568.84;2585686;22;20004;-84
2022/12/29 00:51:27;;;;;;;3.88;1.20;;;;;;;8.02;100.00;92552.50;2569649;23;20007;-84
2022/12/29 00:52:28;;;;;;;3.22;1.13;;;;;;;8.20;100.00;92550.19;2556781;23;20048;-83
2022/12/29 00:53:29;;;;;;;2.35;1.20;;;;;;;7.90;100.00;92553.91;2581643;23;20347;-84
2022/12/29 00:54:33;;;;;;;3.97;1.20;;;;;;;7.70;100.00;92545.19;2556713;23;20436;-84
2022/12/29 00:55:38;;;;;;;5.10;1.90;;;;;;;7.71;100.00;92555.41;2558070;23;20009;-84
2022/12/29 00:56:41;;;;;;;2.78;1.50;;;;;;;7.66;100.00;92542.59;2558813;23;20069;-84
2022/12/29 00:57:42;;;;;;;5.43;1.10;;;;;;;8.03;100.00;92552.09;2558123;23;20400;-83
2022/12/29 00:58:43;;;;;;;3.35;1.00;;;;;;;8.17;100.00;92548.38;2569523;22;20000;-85
2022/12/29 00:59:45;;;;;;;4.43;1.38;;;;;;;8.00;100.00;92547.59;2581800;23;20079;-84
2022/12/29 01:00:46;;;;;;;7.13;1.58;;;;;;;8.00;100.00;92541.53;2569353;23;20265;-84
2022/12/29 01:01:47;;;;;;;2.72;1.13;;;;;;;8.13;100.00;92538.97;2569816;23;20031;-84
2022/12/29 01:02:48;;;;;;;3.53;1.30;;;;;;;7.97;100.00;92560.97;2569507;23;20460;-85
2022/12/29 01:03:49;;;;;;;3.00;1.20;;;;;;;8.01;100.00;92553.66;2581679;23;20004;-86
2022/12/29 01:04:50;;;;;;;2.85;1.17;;;;;;;7.90;100.00;92553.91;2569452;23;20009;-83
2022/12/29 01:05:51;;;;;;;5.13;1.00;;;;;;;8.07;100.00;92552.00;2556822;23;20005;-85
2022/12/29 01:06:52;;;;;;;3.28;1.00;;;;;;;7.89;100.00;92567.59;2557033;23;20005;-84
2022/12/29 01:07:53;;;;;;;3.38;1.00;;;;;;;8.19;100.00;92571.91;2569809;23;20074;-85
2022/12/29 01:10:15;;;;;;;3.38;1.20;;;;;;;8.12;100.00;92553.44;2585816;22;19997;-83
2022/12/29 01:11:16;;;;;;;4.65;0.90;;;;;;;8.27;100.00;92554.63;2569171;23;20004;-84
2022/12/29 01:12:39;;;;;;;7.13;1.67;;;;;;;8.34;100.00;92533.19;2569304;23;20510;-83
2022/12/29 01:13:40;;;;;;;4.10;1.50;;;;;;;8.35;100.00;92550.66;2577640;22;20011;-86
2022/12/29 01:14:42;;;;;;;4.25;0.93;;;;;;;8.49;100.00;92545.03;2569955;23;20012;-84
2022/12/29 01:15:52;;;;;;;4.55;1.05;;;;;;;8.31;100.00;92536.66;2557569;23;20005;-84
2022/12/29 01:16:54;;;;;;;2.55;1.08;;;;;;;8.25;100.00;92544.41;2572917;22;20008;-86
2022/12/29 01:17:55;;;;;;;2.55;1.00;;;;;;;8.33;100.00;92539.66;2569635;23;20012;-84
2022/12/29 01:18:56;;;;;;;3.03;1.25;;;;;;;8.28;100.00;92545.47;2557072;23;20012;-83
2022/12/29 01:19:58;;;;;;;2.55;0.90;;;;;;;8.29;100.00;92553.03;2570011;22;20009;-84
2022/12/29 01:21:04;;;;;;;1.33;0.90;;;;;;;8.32;100.00;92554.13;2568847;23;20005;-85
2022/12/29 01:22:05;;;;;;;1.60;0.73;;;;;;;8.32;100.00;92538.91;2571383;22;20005;-84
2022/12/29 01:23:06;;;;;;;2.53;1.20;;;;;;;8.51;100.00;92541.94;2569380;23;20004;-84
2022/12/29 01:24:07;;;;;;;1.67;0.90;;;;;;;8.23;100.00;92538.72;2556597;23;20005;-84
2022/12/29 01:25:08;;;;;;;4.32;1.00;;;;;;;8.10;100.00;92548.53;2569178;23;20062;-83
2022/12/29 01:26:10;;;;;;;2.80;1.00;;;;;;;8.11;100.00;92538.63;2569333;22;20001;-85
2022/12/29 01:27:11;;;;;;;3.60;1.42;;;;;;;8.26;100.00;92563.78;2581641;23;20000;-83
2022/12/29 01:28:12;;;;;;;3.70;0.90;;;;;;;8.69;90.54;92563.59;2569226;23;20007;-85
2022/12/29 01:29:14;;;;;;;2.70;1.10;;;;;;;8.44;100.00;92558.84;2556785;23;20012;-85
2022/12/29 01:30:15;;;;;;;5.07;1.13;;;;;;;8.24;100.00;92547.47;2568951;23;20016;-85
2022/12/29 01:31:16;;;;;;;4.82;1.00;;;;;;;8.23;100.00;92559.28;2556819;23;20009;-85
2022/12/29 01:32:17;;;;;;;3.03;0.90;;;;;;;8.36;100.00;92546.06;2569343;22;20011;-83
2022/12/29 01:33:18;;;;;;;3.78;0.90;;;;;;;8.16;100.00;92573.47;2569813;23;20028;-85
2022/12/29 01:34:19;;;;;;;4.32;1.02;;;;;;;8.29;100.00;92552.28;2556722;23;20016;-84
2022/12/29 01:35:20;;;;;;;3.38;0.85;;;;;;;8.39;98.65;92529.31;2556893;23;20009;-85
2022/12/29 01:36:21;;;;;;;3.50;1.30;;;;;;;8.50;94.54;92570.47;2569527;23;20004;-85
2022/12/29 01:37:22;;;;;;;2.53;1.00;;;;;;;8.49;98.83;92555.69;2581871;23;20015;-82
2022/12/29 01:38:29;;;;;;;3.83;0.93;;;;;;;8.32;100.00;92562.88;2581709;23;20011;-86
2022/12/29 01:39:36;;;;;;;3.95;1.30;;;;;;;8.45;96.75;92578.22;2570507;23;20008;-87
2022/12/29 01:40:47;;;;;;;3.45;1.15;;;;;;;8.39;98.44;92577.97;2569998;23;20698;-84
2022/12/29 01:41:48;;;;;;;5.47;0.90;;;;;;;8.18;100.00;92559.78;2561344;23;20035;-85
2022/12/29 01:42:49;;;;;;;2.08;0.80;;;;;;;8.45;92.80;92573.66;2556879;23;20103;-86
2022/12/29 01:43:50;;;;;;;2.38;0.90;;;;;;;8.39;99.08;92564.66;2556916;23;20020;-86
2022/12/29 01:44:59;;;;;;;2.45;1.30;;;;;;;8.32;100.00;92572.78;2581866;22;20008;-85
2022/12/29 01:46:01;;;;;;;2.30;1.02;;;;;;;8.30;100.00;92581.19;2583759;22;20015;-84
2022/12/29 01:47:02;;;;;;;3.70;1.50;;;;;;;8.40;97.45;92587.47;2569309;23;20008;-84
2022/12/29 01:48:06;;;;;;;5.10;0.98;;;;;;;8.47;97.77;92574.00;2569427;23;20008;-85
2022/12/29 01:49:33;;;;;;;3.60;0.70;;;;;;;8.56;92.80;92573.41;2569549;23;20090;-84
2022/12/29 01:50:43;;;;;;;2.88;0.80;;;;;;;8.37;100.00;92588.28;2564928;23;20011;-86
2022/12/29 01:52:00;;;;;;;3.45;1.02;;;;;;;8.43;100.00;92560.00;2571541;23;20004;-85
2022/12/29 01:53:08;;;;;;;2.42;1.00;;;;;;;8.29;100.00;92576.25;2585235;22;20538;-84
2022/12/29 01:54:27;;;;;;;2.63;0.70;;;;;;;8.31;98.85;92568.63;2570891;23;20007;-85
2022/12/29 01:55:33;;;;;;;1.40;0.73;;;;;;;8.30;100.00;92567.13;2564283;23;20008;-85
2022/12/29 01:56:43;;;;;;;3.47;0.80;;;;;;;8.34;100.00;92583.78;2558530;23;20005;-88
2022/12/29 01:57:47;;;;;;;;;;;;;;;8.35;100.00;92571.22;2561446;23;20417;-87
2022/12/29 01:58:53;;;;;;;1.27;0.80;;;;;;;8.27;100.00;92562.63;2557542;23;19908;-85
2022/12/29 02:00:08;;;;;;;8.57;1.33;;;;;;;8.32;100.00;92578.84;2583038;22;20099;-87
2022/12/29 02:01:10;;;;;;;5.05;1.02;;;;;;;8.33;100.00;92566.28;2571972;23;20028;-87
2022/12/29 02:02:12;;;;;;;2.40;0.90;;;;;;;8.24;100.00;92590.06;2569961;22;20050;-87
2022/12/29 02:03:13;;;;;;;6.40;1.00;;;;;;;8.39;100.00;92571.91;2581807;23;20004;-86
2022/12/29 02:04:15;;;;;;;1.95;1.17;;;;;;;8.31;100.00;92571.28;2557135;23;20005;-84
2022/12/29 02:05:55;;;;;;;3.65;0.90;;;;;;;8.50;95.96;92569.75;2569364;23;20012;-86
2022/12/29 02:06:59;;;;;;;;;;;;;;;8.32;100.00;92578.09;2590609;22;20467;-84
2022/12/29 02:08:01;;;;;;;3.80;1.10;;;;;;;8.19;100.00;92574.59;2570057;23;19912;-85
2022/12/29 02:09:03;;;;;;;2.25;1.08;;;;;;;8.28;100.00;92588.81;2569950;22;20070;-85
2022/12/29 02:10:04;;;;;;;5.57;1.40;;;;;;;8.22;100.00;92606.47;2569333;23;20080;-87
2022/12/29 02:11:06;;;;;;;22.42;2.25;;;;;;;8.58;96.99;92581.72;2569226;23;20032;-86
2022/12/29 02:12:07;;;;;;;4.15;1.00;;;;;;;8.43;100.00;92581.31;2557410;23;20693;-86
2022/12/29 02:13:08;;;;;;;3.42;0.88;;;;;;;8.27;100.00;92586.59;2557111;23;20028;-85
2022/12/29 02:14:14;;;;;;;3.70;1.05;;;;;;;8.21;100.00;92569.56;2569344;22;20004;-85
2022/12/29 02:15:16;;;;;;;1.95;0.90;;;;;;;8.21;100.00;92581.00;2570423;23;20448;-85
2022/12/29 02:16:51;;;;;;;1.67;0.90;;;;;;;8.22;100.00;92584.41;2569777;22;20008;-86
2022/12/29 02:18:35;;;;;;;4.75;1.40;;;;;;;8.13;100.00;92582.31;2576538;23;20012;-86
2022/12/29 02:19:57;;;;;;;4.25;1.40;;;;;;;8.18;100.00;92573.09;2570905;22;20008;-84
2022/12/29 02:21:22;;;;;;;2.67;1.17;;;;;;;8.28;100.00;92577.41;2573439;23;20087;-84
2022/12/29 02:22:29;;;;;;;4.72;1.15;;;;;;;8.12;100.00;92598.69;2579698;22;20094;-83
2022/12/29 02:23:54;;;;;;;2.10;1.10;;;;;;;8.15;100.00;92593.28;2570136;23;20016;-84
2022/12/29 02:27:17;;;;;;;2.15;1.88;;;;;;;8.28;100.00;92582.75;2593163;22;20018;-85
2022/12/29 02:28:53;;;;;;;5.82;1.20;;;;;;;8.26;100.00;92582.44;2594610;22;20156;-84
2022/12/29 02:30:16;;;;;;;5.82;1.23;;;;;;;8.10;100.00;92585.78;2576810;23;20000;-85
2022/12/29 02:31:41;;;;;;;1.10;0.93;;;;;;;8.10;100.00;92585.03;2574048;23;20419;-84
2022/12/29 02:33:04;;;;;;;2.17;1.38;;;;;;;8.07;100.00;92598.00;2579422;22;20042;-84
2022/12/29 02:34:08;;;;;;;3.97;1.40;;;;;;;8.01;100.00;92585.59;2581130;23;20497;-83
2022/12/29 02:35:23;;;;;;;2.67;1.40;;;;;;;8.10;100.00;92577.06;2558008;23;20009;-84
2022/12/29 02:36:30;;;;;;;3.17;1.38;;;;;;;8.03;100.00;92570.75;2575357;22;20008;-84
2022/12/29 02:37:43;;;;;;;3.67;1.00;;;;;;;7.98;100.00;92576.53;2581806;23;20000;-84
2022/12/29 02:39:01;;;;;;;3.90;1.33;;;;;;;8.02;100.00;92579.13;2572052;23;20411;-84
2022/12/29 02:40:09;;;;;;;4.47;1.35;;;;;;;7.94;100.00;92585.75;2572475;23;20002;-85
2022/12/29 02:41:33;;;;;;;2.35;1.35;;;;;;;7.98;100.00;92583.75;2559562;23;20017;-85
2022/12/29 02:43:06;;;;;;;1.33;1.17;;;;;;;8.03;100.00;92586.69;2578817;22;20011;-85
2022/12/29 02:44:24;;;;;;;3.50;1.15;;;;;;;7.87;100.00;92577.91;2575421;23;20004;-82
2022/12/29 02:45:34;;;;;;;2.92;1.20;;;;;;;7.98;100.00;92594.41;2576435;22;20004;-84
2022/12/29 02:47:06;;;;;;;;;;;;;;;8.05;100.00;92581.72;2594786;22;20000;-84
2022/12/29 02:48:21;;;;;;;5.38;1.42;;;;;;;7.88;100.00;92585.47;2555846;23;19931;-84
2022/12/29 02:49:45;;;;;;;4.50;1.23;;;;;;;7.83;100.00;92592.03;2562053;23;20037;-84
2022/12/29 02:51:00;;;;;;;6.53;1.13;;;;;;;7.79;100.00;92579.97;2573626;23;20004;-85
2022/12/29 02:52:11;;;;;;;5.45;1.33;;;;;;;7.85;100.00;92582.88;2562617;23;20129;-85
2022/12/29 02:53:15;;;;;;;5.10;1.58;;;;;;;7.88;100.00;92574.09;2560543;23;20008;-85
2022/12/29 02:55:38;;;;;;;2.67;1.08;;;;;;;8.01;100.00;92577.63;2585971;22;20012;-83
2022/12/29 02:56:39;;;;;;;3.42;1.17;;;;;;;7.93;100.00;92585.00;2569322;23;20240;-85
2022/12/29 02:57:40;;;;;;;2.80;1.55;;;;;;;7.98;100.00;92581.09;2556793;23;20040;-84
2022/12/29 02:58:41;;;;;;;3.10;1.30;;;;;;;8.00;100.00;92584.09;2556930;23;20001;-82
2022/12/29 02:59:44;;;;;;;5.35;1.17;;;;;;;7.81;100.00;92596.25;2556544;23;20005;-84
2022/12/29 03:01:07;;;;;;;5.65;1.20;;;;;;;7.97;100.00;92585.66;2569738;22;20062;-84
2022/12/29 03:02:27;;;;;;;3.85;1.23;;;;;;;8.08;100.00;92580.88;2581182;23;20629;-84
2022/12/29 03:03:55;;;;;;;2.85;1.88;;;;;;;7.89;100.00;92572.91;2577676;22;20031;-85
2022/12/29 03:05:08;;;;;;;3.65;1.27;;;;;;;7.98;100.00;92576.53;2574361;23;20054;-84
2022/12/29 03:06:34;;;;;;;3.63;1.50;;;;;;;7.84;100.00;92584.81;2574067;22;20040;-85
2022/12/29 03:09:34;;;;;;;4.57;1.33;;;;;;;7.85;100.00;92598.84;2586182;22;20416;-86
2022/12/29 03:10:48;;;;;;;4.07;1.77;;;;;;;7.76;100.00;92599.41;2584846;22;20411;-84
2022/12/29 03:12:09;;;;;;;3.55;1.30;;;;;;;7.79;100.00;92596.66;2594494;22;20004;-86
2022/12/29 03:16:45;;;;;;;3.97;1.50;;;;;;;7.87;100.00;92597.28;2594970;22;20000;-84
2022/12/29 03:18:02;;;;;;;3.90;1.30;;;;;;;7.80;100.00;92600.09;2583377;22;20008;-83
2022/12/29 03:19:22;;;;;;;4.40;1.83;;;;;;;7.80;100.00;92598.16;2582311;23;20012;-83
2022/12/29 03:20:38;;;;;;;;;;;;;;;7.89;100.00;92602.94;2574623;23;20004;-84
2022/12/29 03:23:05;;;;;;;5.47;1.35;;;;;;;8.18;100.00;92597.03;2587563;22;20038;-84
2022/12/29 03:24:06;;;;;;;2.08;1.23;;;;;;;8.11;100.00;92584.63;2581993;23;20094;-85
2022/12/29 03:25:13;;;;;;;1.92;1.45;;;;;;;8.17;100.00;92590.22;2569745;23;20131;-85
2022/12/29 03:26:16;;;;;;;4.78;1.90;;;;;;;8.16;100.00;92599.34;2582100;23;20015;-85
2022/12/29 03:27:43;;;;;;;6.82;2.08;;;;;;;8.00;100.00;92594.75;2571247;22;20000;-84
2022/12/29 03:28:59;;;;;;;3.05;1.98;;;;;;;7.79;100.00;92580.72;2574477;22;20019;-84
2022/12/29 03:30:03;;;;;;;6.70;1.80;;;;;;;7.77;100.00;92592.91;2572827;23;20008;-85
2022/12/29 03:31:08;;;;;;;6.00;1.67;;;;;;;7.75;100.00;92588.00;2558693;23;20001;-84
2022/12/29 03:32:11;;;;;;;3.90;1.60;;;;;;;7.73;100.00;92600.97;2571108;23;20019;-84
2022/12/29 03:33:17;;;;;;;2.08;1.42;;;;;;;7.75;100.00;92588.00;2558577;23;20083;-84
2022/12/29 03:34:20;;;;;;;2.63;1.40;;;;;;;8.06;100.00;92598.41;2559502;23;20021;-85
2022/12/29 03:35:26;;;;;;;8.57;1.70;;;;;;;8.18;100.00;92583.72;2570529;23;20064;-83
2022/12/29 03:36:35;;;;;;;5.45;1.90;;;;;;;8.14;100.00;92575.81;2559313;23;20037;-83
2022/12/29 03:37:41;;;;;;;3.63;1.45;;;;;;;8.20;100.00;92576.81;2560585;23;20004;-85
2022/12/29 03:38:55;;;;;;;4.18;1.70;;;;;;;8.01;100.00;92581.03;2583691;22;20107;-84
2022/12/29 03:39:57;;;;;;;6.63;1.73;;;;;;;7.92;100.00;92574.78;2572528;23;20005;-83
2022/12/29 03:41:00;;;;;;;4.30;1.70;;;;;;;7.98;100.00;92559.81;2569885;23;20011;-84
2022/12/29 03:42:04;;;;;;;4.13;1.90;;;;;;;7.97;100.00;92551.06;2570870;22;20088;-85
2022/12/29 03:43:05;;;;;;;5.70;2.28;;;;;;;7.93;100.00;92569.03;2570584;23;20391;-85
2022/12/29 03:44:07;;;;;;;3.70;1.95;;;;;;;7.80;100.00;92560.19;2582494;22;20000;-84
2022/12/29 03:45:09;;;;;;;4.82;1.83;;;;;;;7.74;100.00;92570.56;2570100;23;20082;-85
2022/12/29 03:46:10;;;;;;;4.60;1.83;;;;;;;7.80;100.00;92566.25;2583015;22;20012;-84
2022/12/29 03:47:13;;;;;;;7.00;1.80;;;;;;;7.70;100.00;92579.78;2582617;23;20396;-85
2022/12/29 03:48:14;;;;;;;3.72;1.77;;;;;;;7.80;100.00;92571.56;2582661;23;20015;-84
2022/12/29 03:49:17;;;;;;;3.45;1.80;;;;;;;7.87;100.00;92548.66;2582404;22;20424;-85
2022/12/29 03:50:19;;;;;;;4.85;2.25;;;;;;;7.81;100.00;92564.31;2594646;22;20110;-85
2022/12/29 03:51:20;;;;;;;3.88;1.98;;;;;;;7.97;100.00;92560.97;2582078;23;20008;-84
2022/12/29 03:52:21;;;;;;;2.95;1.80;;;;;;;8.13;100.00;92545.03;2569624;23;20038;-85
2022/12/29 03:53:22;;;;;;;4.43;1.83;;;;;;;8.12;100.00;92556.88;2569507;23;20035;-85
2022/12/29 03:54:23;;;;;;;2.70;2.03;;;;;;;7.98;100.00;92541.94;2569886;22;20061;-85
2022/12/29 03:55:24;;;;;;;2.72;2.15;;;;;;;7.79;100.00;92548.78;2569895;23;20043;-84
2022/12/29 03:56:25;;;;;;;3.00;1.80;;;;;;;7.83;100.00;92546.06;2570128;23;20000;-84
2022/12/29 03:57:25;;;;;;;2.20;1.60;;;;;;;8.00;100.00;92549.50;2570222;23;20039;-85
2022/12/29 03:58:27;;;;;;;2.10;1.80;;;;;;;7.85;100.00;92540.31;2582786;22;20086;-85
2022/12/29 03:59:27;;;;;;;2.15;1.80;;;;;;;7.93;100.00;92536.34;2594857;22;20003;-85
2022/12/29 04:00:29;;;;;;;4.00;1.60;;;;;;;7.85;100.00;92540.31;2569167;23;20001;-85
2022/12/29 04:01:30;;;;;;;3.80;1.70;;;;;;;7.58;100.00;92534.00;2582341;23;20440;-85
2022/12/29 04:02:31;;;;;;;3.88;1.80;;;;;;;7.60;100.00;92541.59;2557389;23;20428;-85
2022/12/29 04:03:32;;;;;;;6.63;2.13;;;;;;;7.54;100.00;92541.28;2557307;23;20028;-85
2022/12/29 04:04:33;;;;;;;5.45;1.70;;;;;;;7.58;100.00;92531.34;2557372;23;20004;-84
2022/12/29 04:05:34;;;;;;;5.45;1.67;;;;;;;7.50;100.00;92535.28;2557381;23;20005;-85
2022/12/29 04:06:35;;;;;;;4.65;1.95;;;;;;;7.40;100.00;92536.25;2557321;23;20009;-85
2022/12/29 04:07:36;;;;;;;4.15;1.90;;;;;;;7.34;100.00;92545.13;2557335;23;20005;-85
2022/12/29 04:08:36;;;;;;;5.97;1.67;;;;;;;7.47;100.00;92543.38;2557209;23;20001;-84
2022/12/29 04:09:38;;;;;;;2.15;1.60;;;;;;;7.22;100.00;92541.91;2557387;23;20000;-86
2022/12/29 04:10:40;;;;;;;2.45;1.52;;;;;;;7.43;100.00;92546.09;2557526;23;20051;-84
2022/12/29 04:11:41;;;;;;;2.38;1.45;;;;;;;7.39;100.00;92542.75;2582153;22;20012;-85
2022/12/29 04:12:42;;;;;;;5.13;1.60;;;;;;;7.37;100.00;92544.31;2569454;23;20011;-85
2022/12/29 04:13:42;;;;;;;4.53;1.70;;;;;;;7.27;100.00;92538.78;2569593;23;20004;-86
2022/12/29 04:14:43;;;;;;;4.60;1.55;;;;;;;7.34;100.00;92555.78;2569512;23;20004;-86
2022/12/29 04:15:45;;;;;;;2.30;1.50;;;;;;;7.35;100.00;92551.94;2569689;23;20001;-85
2022/12/29 04:16:46;;;;;;;3.63;1.75;;;;;;;7.36;100.00;92564.81;2557883;23;20434;-86
2022/12/29 04:17:47;;;;;;;6.00;2.03;;;;;;;7.54;100.00;92559.91;2557561;23;20017;-83
2022/12/29 04:18:48;;;;;;;3.97;1.65;;;;;;;7.36;100.00;92558.75;2557424;23;20076;-84
2022/12/29 04:19:49;;;;;;;4.30;1.60;;;;;;;7.37;100.00;92565.56;2569304;22;20495;-84
2022/12/29 04:21:05;;;;;;;2.85;1.67;;;;;;;7.34;100.00;92567.16;2569367;23;20008;-84
2022/12/29 04:22:06;;;;;;;2.47;1.30;;;;;;;7.33;100.00;92557.66;2572908;23;20047;-85
2022/12/29 04:23:07;;;;;;;2.75;1.67;;;;;;;7.30;100.00;92574.44;2557408;23;20001;-85
2022/12/29 04:24:08;;;;;;;6.28;1.50;;;;;;;7.29;100.00;92575.59;2569348;22;20036;-85
2022/12/29 04:25:09;;;;;;;3.35;1.20;;;;;;;7.53;100.00;92563.75;2569687;23;20432;-85
2022/12/29 04:26:10;;;;;;;5.00;1.20;;;;;;;7.51;100.00;92560.75;2557857;23;20028;-85
2022/12/29 04:27:11;;;;;;;2.85;1.40;;;;;;;7.47;100.00;92564.63;2569893;23;20438;-85
2022/12/29 04:28:13;;;;;;;2.08;1.25;;;;;;;7.56;100.00;92565.59;2569367;23;20005;-85
2022/12/29 04:29:14;;;;;;;3.22;1.42;;;;;;;7.65;100.00;92566.94;2569566;23;20096;-86
2022/12/29 04:30:15;;;;;;;2.85;1.30;;;;;;;7.63;100.00;92562.03;2569480;23;20027;-85
2022/12/29 04:31:16;;;;;;;3.45;1.88;;;;;;;7.82;100.00;92568.50;2557323;23;20005;-84
2022/12/29 04:32:17;;;;;;;3.33;1.30;;;;;;;7.70;100.00;92561.16;2569668;23;20089;-85
2022/12/29 04:33:18;;;;;;;4.20;1.40;;;;;;;8.02;100.00;92553.25;2569501;23;20008;-84
2022/12/29 04:34:19;;;;;;;3.67;1.50;;;;;;;7.97;100.00;92560.97;2569507;22;20502;-85
2022/12/29 04:35:20;;;;;;;3.15;1.30;;;;;;;7.98;100.00;92563.22;2569673;23;20008;-84
2022/12/29 04:36:21;;;;;;;1.38;1.10;;;;;;;8.07;100.00;92566.06;2569810;23;20067;-84
2022/12/29 04:37:22;;;;;;;3.55;1.38;;;;;;;7.76;100.00;92559.50;2569653;23;20374;-83
2022/12/29 04:38:23;;;;;;;4.82;1.65;;;;;;;7.82;100.00;92563.94;2582378;23;20004;-84
2022/12/29 04:39:24;;;;;;;3.08;1.40;;;;;;;8.00;100.00;92568.16;2557523;23;20096;-85
2022/12/29 04:40:25;;;;;;;2.95;1.40;;;;;;;8.10;100.00;92561.09;2557362;23;20035;-85
2022/12/29 04:41:27;;;;;;;3.88;1.65;;;;;;;8.11;100.00;92554.59;2557595;23;20448;-85
2022/12/29 04:42:28;;;;;;;2.28;1.45;;;;;;;8.08;100.00;92567.59;2557167;23;20169;-84
2022/12/29 04:43:29;;;;;;;2.90;1.35;;;;;;;7.91;100.00;92563.38;2557153;23;20457;-84
2022/12/29 04:44:30;;;;;;;2.08;1.48;;;;;;;7.82;100.00;92565.84;2569677;22;20483;-85
2022/12/29 04:45:30;;;;;;;1.80;1.30;;;;;;;7.73;100.00;92570.97;2569826;23;20004;-85
2022/12/29 04:46:31;;;;;;;3.63;1.73;;;;;;;7.83;100.00;92564.69;2569672;23;20040;-85
2022/12/29 04:47:32;;;;;;;6.45;1.75;;;;;;;7.82;100.00;92569.25;2582343;23;20004;-86
2022/12/29 04:48:33;;;;;;;6.68;1.98;;;;;;;8.14;100.00;92575.06;2582483;23;20000;-85
2022/12/29 04:49:51;;;;;;;1.85;1.30;;;;;;;8.17;100.00;92571.59;2581928;23;19996;-85
2022/12/29 04:50:52;;;;;;;2.22;1.70;;;;;;;8.01;100.00;92574.97;2576371;22;20020;-85
2022/12/29 04:51:53;;;;;;;3.28;1.50;;;;;;;7.91;100.00;92575.94;2569532;23;20020;-85
2022/12/29 04:52:54;;;;;;;2.22;1.30;;;;;;;7.90;100.00;92575.19;2569474;22;20054;-85
2022/12/29 04:53:55;;;;;;;4.40;1.60;;;;;;;7.96;100.00;92583.44;2569337;23;20012;-84
2022/12/29 04:54:56;;;;;;;2.80;1.50;;;;;;;8.01;100.00;92586.34;2557280;23;20001;-85
2022/12/29 04:55:57;;;;;;;4.13;1.60;;;;;;;7.90;100.00;92585.06;2581755;23;20012;-84
2022/12/29 04:56:58;;;;;;;2.08;1.40;;;;;;;7.91;100.00;92573.28;2569535;23;20039;-85
2022/12/29 04:57:59;;;;;;;3.63;1.20;;;;;;;7.85;100.00;92580.97;2569705;23;20000;-85
2022/12/29 04:59:00;;;;;;;3.65;1.50;;;;;;;7.75;100.00;92579.28;2557252;23;20088;-85
2022/12/29 05:00:01;;;;;;;5.28;1.70;;;;;;;7.87;100.00;92583.25;2557098;23;20016;-84
2022/12/29 05:01:02;;;;;;;4.72;1.40;;;;;;;7.83;100.00;92567.34;2569603;22;20325;-85
2022/12/29 05:02:03;;;;;;;4.45;1.42;;;;;;;7.71;100.00;92582.00;2569551;23;20016;-85
2022/12/29 05:03:04;;;;;;;3.33;1.40;;;;;;;7.64;100.00;92571.53;2560148;23;20036;-84
2022/12/29 05:04:05;;;;;;;1.55;1.35;;;;;;;7.75;100.00;92565.97;2556916;23;20001;-84
2022/12/29 05:05:06;;;;;;;6.35;1.33;;;;;;;7.92;100.00;92572.09;2569270;23;20001;-84
2022/12/29 05:06:07;;;;;;;3.17;1.30;;;;;;;8.07;100.00;92568.72;2557062;23;20092;-83
2022/12/29 05:07:08;;;;;;;4.10;1.52;;;;;;;7.91;100.00;92567.97;2557220;23;20499;-85
2022/12/29 05:08:09;;;;;;;2.15;1.23;;;;;;;7.78;100.00;92563.25;2557129;23;20133;-84
2022/12/29 05:09:10;;;;;;;2.45;1.52;;;;;;;7.73;100.00;92566.41;2557265;23;20005;-84
2022/12/29 05:10:30;;;;;;;2.92;1.60;;;;;;;7.74;100.00;92561.81;2557044;23;20009;-84
2022/12/29 05:11:31;;;;;;;1.60;1.20;;;;;;;7.91;100.00;92566.03;2577479;22;20016;-84
2022/12/29 05:12:34;;;;;;;3.25;1.40;;;;;;;7.77;100.00;92563.66;2569463;23;20759;-84
2022/12/29 05:13:35;;;;;;;2.13;1.40;;;;;;;7.64;100.00;92560.09;2569530;23;20023;-85
2022/12/29 05:14:36;;;;;;;2.78;1.23;;;;;;;7.96;100.00;92570.13;2556564;23;20120;-84
2022/12/29 05:15:36;;;;;;;4.30;1.27;;;;;;;7.67;100.00;92561.97;2569514;23;20031;-85
2022/12/29 05:16:37;;;;;;;2.72;1.38;;;;;;;7.78;100.00;92563.25;2569613;22;20067;-83
2022/12/29 05:17:38;;;;;;;2.00;1.38;;;;;;;7.72;100.00;92559.56;2569506;23;20008;-84
2022/12/29 05:18:39;;;;;;;1.73;1.48;;;;;;;7.66;100.00;92560.47;2557012;23;20005;-84
2022/12/29 05:19:40;;;;;;;3.53;1.58;;;;;;;7.70;100.00;92577.09;2556612;23;20030;-84
2022/12/29 05:20:41;;;;;;;2.50;1.20;;;;;;;7.91;100.00;92557.31;2556545;23;20452;-85
2022/12/29 05:21:43;;;;;;;1.55;0.90;;;;;;;7.73;100.00;92555.00;2569220;23;20011;-85
2022/12/29 05:22:44;;;;;;;3.50;1.27;;;;;;;7.96;100.00;92554.16;2569589;23;20011;-84
2022/12/29 05:23:45;;;;;;;2.20;1.50;;;;;;;7.90;100.00;92559.22;2569651;22;20001;-85
2022/12/29 05:24:46;;;;;;;3.22;1.13;;;;;;;7.88;100.00;92566.09;2569189;23;20035;-84
2022/12/29 05:25:47;;;;;;;2.47;1.60;;;;;;;7.73;100.00;92561.09;2569564;23;20012;-84
2022/12/29 05:26:48;;;;;;;2.47;1.27;;;;;;;7.64;100.00;92563.53;2582171;23;20015;-85
2022/12/29 05:27:49;;;;;;;2.63;1.10;;;;;;;7.66;100.00;92560.47;2556798;23;20397;-84
2022/12/29 05:28:51;;;;;;;3.50;1.20;;;;;;;7.78;100.00;92562.50;2557144;23;20357;-84
2022/12/29 05:29:52;;;;;;;3.08;1.20;;;;;;;7.62;100.00;92563.19;2557211;23;20008;-85
2022/12/29 05:30:53;;;;;;;3.00;1.10;;;;;;;7.50;100.00;92571.78;2556466;23;20005;-84
2022/12/29 05:32:02;;;;;;;3.90;1.50;;;;;;;7.57;100.00;92572.41;2569102;23;20004;-83
2022/12/29 05:33:06;;;;;;;3.67;1.50;;;;;;;7.58;100.00;92552.63;2570908;23;20008;-84
2022/12/29 05:34:07;;;;;;;2.83;1.10;;;;;;;7.63;100.00;92562.03;2582269;22;20008;-84
2022/12/29 05:35:08;;;;;;;3.58;1.10;;;;;;;7.82;100.00;92569.25;2568876;23;20007;-84
2022/12/29 05:36:09;;;;;;;2.50;1.20;;;;;;;7.88;100.00;92566.84;2556833;23;20539;-83
2022/12/29 05:37:10;;;;;;;3.30;1.30;;;;;;;7.94;100.00;92554.56;2557030;23;20017;-85
2022/12/29 05:38:11;;;;;;;9.15;2.00;;;;;;;7.87;100.00;92562.69;2569298;23;20004;-84
2022/12/29 05:39:12;;;;;;;2.17;1.20;;;;;;;8.03;100.00;92562.75;2556720;23;20456;-85
2022/12/29 05:40:13;;;;;;;2.20;1.30;;;;;;;7.90;100.00;92559.22;2568700;23;20063;-83
2022/12/29 05:41:14;;;;;;;5.47;1.63;;;;;;;7.81;100.00;92562.44;2581477;23;20008;-84
2022/12/29 05:42:15;;;;;;;4.05;1.23;;;;;;;7.94;100.00;92562.53;2556330;23;20417;-84
2022/12/29 05:43:16;;;;;;;2.97;1.00;;;;;;;8.03;100.00;92561.97;2556995;23;20392;-84
2022/12/29 05:44:17;;;;;;;5.30;1.13;;;;;;;8.01;100.00;92556.31;2556471;23;20496;-84
2022/12/29 05:45:18;;;;;;;3.90;1.23;;;;;;;7.82;100.00;92563.94;2556970;23;20001;-84
2022/12/29 05:46:19;;;;;;;3.58;1.00;;;;;;;7.99;100.00;92566.63;2557177;23;20009;-84